createdAt,value
2019-02-23T00:00:58.629Z,-4.60
2019-02-23T00:03:27.474Z,-4.50
2019-02-23T00:05:56.197Z,-4.50
2019-02-23T00:08:26.393Z,-4.60
2019-02-23T00:10:55.258Z,-4.70
2019-02-23T00:13:24.121Z,-4.70
2019-02-23T00:15:56.963Z,-4.70
2019-02-23T00:18:30.348Z,-4.60
2019-02-23T00:21:01.847Z,-4.60
2019-02-23T00:23:31.440Z,-4.70
2019-02-23T00:26:01.622Z,-4.70
2019-02-23T00:28:31.013Z,-4.70
2019-02-23T00:31:03.279Z,-4.60
2019-02-23T00:33:31.979Z,-4.60
2019-02-23T00:36:02.509Z,-4.70
2019-02-23T00:38:31.378Z,-4.70
2019-02-23T00:41:00.091Z,-4.70
2019-02-23T00:43:28.878Z,-4.70
2019-02-23T00:45:57.551Z,-4.80
2019-02-23T00:48:27.054Z,-4.80
2019-02-23T00:50:55.918Z,-4.80
2019-02-23T00:53:24.546Z,-4.90
2019-02-23T00:55:53.474Z,-4.90
2019-02-23T00:58:22.432Z,-4.90
2019-02-23T01:00:52.096Z,-5.00
2019-02-23T01:03:21.707Z,-5.00
2019-02-23T01:05:50.637Z,-5.00
2019-02-23T01:08:25.178Z,-5.00
2019-02-23T01:10:58.058Z,-5.10
2019-02-23T01:13:39.781Z,-5.10
2019-02-23T01:16:13.112Z,-5.10
2019-02-23T01:18:43.007Z,-5.10
2019-02-23T01:21:13.184Z,-5.10
2019-02-23T01:23:47.277Z,-5.00
2019-02-23T01:26:16.011Z,-5.00
2019-02-23T01:28:46.973Z,-5.00
2019-02-23T01:31:15.792Z,-5.10
2019-02-23T01:33:44.592Z,-5.10
2019-02-23T01:36:16.696Z,-5.10
2019-02-23T01:38:46.099Z,-5.10
2019-02-23T01:41:16.771Z,-5.20
2019-02-23T01:43:48.068Z,-5.20
2019-02-23T01:46:16.891Z,-5.20
2019-02-23T01:48:46.047Z,-5.20
2019-02-23T01:51:14.890Z,-5.20
2019-02-23T01:53:45.020Z,-5.20
2019-02-23T01:56:14.088Z,-5.20
2019-02-23T01:58:43.987Z,-5.20
2019-02-23T02:01:12.827Z,-5.20
2019-02-23T02:03:41.750Z,-5.20
2019-02-23T02:06:12.730Z,-5.20
2019-02-23T02:08:41.436Z,-5.20
2019-02-23T02:11:11.500Z,-5.30
2019-02-23T02:13:40.366Z,-5.30
2019-02-23T02:16:13.197Z,-5.20
2019-02-23T02:18:42.009Z,-5.30
2019-02-23T02:21:16.249Z,-5.20
2019-02-23T02:23:45.758Z,-5.30
2019-02-23T02:26:17.539Z,-5.20
2019-02-23T02:28:47.298Z,-5.20
2019-02-23T02:31:16.700Z,-5.10
2019-02-23T02:34:05.744Z,-5.10
2019-02-23T02:36:35.638Z,-5.10
2019-02-23T02:39:07.494Z,-5.20
2019-02-23T02:41:38.674Z,-5.10
2019-02-23T02:44:07.527Z,-5.10
2019-02-23T02:46:36.428Z,-5.10
2019-02-23T02:49:05.397Z,-5.10
2019-02-23T02:51:35.941Z,-5.10
2019-02-23T02:54:07.548Z,-5.10
2019-02-23T02:56:36.873Z,-5.20
2019-02-23T02:59:07.209Z,-5.20
2019-02-23T03:01:36.116Z,-5.20
2019-02-23T03:04:05.008Z,-5.20
2019-02-23T03:06:33.780Z,-5.20
2019-02-23T03:09:08.578Z,-5.20
2019-02-23T03:11:40.394Z,-5.20
2019-02-23T03:14:13.132Z,-5.20
2019-02-23T03:16:42.033Z,-5.20
2019-02-23T03:19:12.475Z,-5.20
2019-02-23T03:21:43.042Z,-5.20
2019-02-23T03:24:12.736Z,-5.20
2019-02-23T03:26:41.584Z,-5.10
2019-02-23T03:29:10.393Z,-5.10
2019-02-23T03:31:39.611Z,-5.10
2019-02-23T03:34:08.454Z,-5.10
2019-02-23T03:36:37.170Z,-5.20
2019-02-23T03:39:06.370Z,-5.20
2019-02-23T03:41:37.613Z,-5.20
2019-02-23T03:44:10.447Z,-5.30
2019-02-23T03:46:39.951Z,-5.30
2019-02-23T03:49:09.202Z,-5.40
2019-02-23T03:51:38.033Z,-5.40
2019-02-23T03:54:06.742Z,-5.50
2019-02-23T03:56:37.557Z,-5.50
2019-02-23T03:59:07.129Z,-5.60
2019-02-23T04:01:36.997Z,-5.60
2019-02-23T04:04:08.840Z,-5.60
2019-02-23T04:06:40.740Z,-5.70
2019-02-23T04:09:09.723Z,-5.70
2019-02-23T04:11:38.536Z,-5.80
2019-02-23T04:14:07.313Z,-5.80
2019-02-23T04:16:35.997Z,-5.80
2019-02-23T04:19:04.824Z,-5.90
2019-02-23T04:21:33.631Z,-6.00
2019-02-23T04:24:05.316Z,-6.00
2019-02-23T04:26:34.514Z,-6.10
2019-02-23T04:29:09.986Z,-6.20
2019-02-23T04:31:43.549Z,-6.10
2019-02-23T04:34:12.966Z,-6.10
2019-02-23T04:36:41.578Z,-6.20
2019-02-23T04:39:16.637Z,-6.20
2019-02-23T04:41:50.593Z,-6.10
2019-02-23T04:44:19.536Z,-6.10
2019-02-23T04:46:48.843Z,-6.10
2019-02-23T04:49:20.074Z,-6.30
2019-02-23T04:51:51.757Z,-6.40
2019-02-23T04:54:22.519Z,-6.50
2019-02-23T04:56:58.331Z,-6.60
2019-02-23T04:59:27.759Z,-6.60
2019-02-23T05:01:56.426Z,-6.60
2019-02-23T05:04:30.226Z,-6.50
2019-02-23T05:07:05.102Z,-6.50
2019-02-23T05:09:35.446Z,-6.50
2019-02-23T05:12:05.198Z,-6.60
2019-02-23T05:14:34.009Z,-6.70
2019-02-23T05:17:03.996Z,-6.80
2019-02-23T05:19:33.711Z,-6.70
2019-02-23T05:22:02.501Z,-6.60
2019-02-23T05:24:36.211Z,-6.50
2019-02-23T05:27:06.543Z,-6.40
2019-02-23T05:29:35.365Z,-6.50
2019-02-23T05:32:04.964Z,-6.50
2019-02-23T05:34:33.721Z,-6.40
2019-02-23T05:37:02.911Z,-6.40
2019-02-23T05:39:31.792Z,-6.40
2019-02-23T05:42:01.270Z,-6.30
2019-02-23T05:44:32.593Z,-6.20
2019-02-23T05:47:03.709Z,-6.30
2019-02-23T05:49:32.636Z,-6.40
2019-02-23T05:52:06.797Z,-6.40
2019-02-23T05:54:36.541Z,-6.40
2019-02-23T05:57:20.473Z,-6.10
2019-02-23T05:59:47.860Z,-5.90
2019-02-23T06:02:18.700Z,-5.70
2019-02-23T06:04:52.256Z,-5.50
2019-02-23T06:07:23.888Z,-5.40
2019-02-23T06:09:52.459Z,-5.30
2019-02-23T06:12:21.447Z,-5.00
2019-02-23T06:14:54.896Z,-5.00
2019-02-23T06:17:26.396Z,-4.90
2019-02-23T06:19:55.308Z,-4.80
2019-02-23T06:22:28.099Z,-4.70
2019-02-23T06:24:59.786Z,-4.60
2019-02-23T06:27:33.897Z,-4.50
2019-02-23T06:30:02.769Z,-4.40
2019-02-23T06:32:35.882Z,-4.10
2019-02-23T06:35:08.457Z,-4.00
2019-02-23T06:37:40.031Z,-3.80
2019-02-23T06:40:11.150Z,-3.50
2019-02-23T06:42:41.911Z,-3.00
2019-02-23T06:45:13.722Z,-2.70
2019-02-23T06:47:43.357Z,-2.30
2019-02-23T06:50:13.497Z,-2.00
2019-02-23T06:52:43.698Z,-1.80
2019-02-23T06:55:12.531Z,-1.60
2019-02-23T06:57:44.682Z,-1.50
2019-02-23T07:00:15.415Z,-1.40
2019-02-23T07:02:46.391Z,-1.30
2019-02-23T07:05:19.697Z,-1.20
2019-02-23T07:07:48.829Z,-1.30
2019-02-23T07:10:21.432Z,-1.50
2019-02-23T07:12:52.712Z,-1.80
2019-02-23T07:15:26.010Z,-2.10
2019-02-23T07:17:55.291Z,-2.20
2019-02-23T07:20:24.575Z,-2.30
2019-02-23T07:22:53.562Z,-2.30
2019-02-23T07:25:23.894Z,-2.40
2019-02-23T07:27:53.007Z,-2.50
2019-02-23T07:30:21.852Z,-2.40
2019-02-23T07:32:50.787Z,-2.40
2019-02-23T07:35:20.597Z,-2.30
2019-02-23T07:37:50.716Z,-2.30
2019-02-23T07:40:21.100Z,-2.20
2019-02-23T07:42:50.333Z,-2.10
2019-02-23T07:45:22.084Z,-1.90
2019-02-23T07:47:52.045Z,-1.60
2019-02-23T07:50:24.090Z,-1.50
2019-02-23T07:52:58.101Z,-1.50
2019-02-23T07:55:26.476Z,-1.30
2019-02-23T07:57:56.369Z,-1.00
2019-02-23T08:00:27.941Z,-0.60
2019-02-23T08:02:59.784Z,-0.10
2019-02-23T08:05:34.751Z,1.00
2019-02-23T08:08:07.996Z,2.20
2019-02-23T08:10:39.210Z,2.90
2019-02-23T08:13:09.571Z,3.70
2019-02-23T08:15:41.189Z,3.80
2019-02-23T08:18:09.897Z,3.90
2019-02-23T08:20:41.533Z,4.10
2019-02-23T08:23:10.779Z,4.40
2019-02-23T08:25:41.085Z,4.60
2019-02-23T08:28:11.841Z,5.10
2019-02-23T08:30:40.738Z,5.00
2019-02-23T08:33:10.156Z,4.30
2019-02-23T08:35:42.033Z,3.90
2019-02-23T08:38:12.243Z,3.80
2019-02-23T08:40:41.782Z,3.50
2019-02-23T08:43:15.723Z,3.10
2019-02-23T08:45:47.351Z,3.10
2019-02-23T08:48:20.737Z,2.40
2019-02-23T08:50:55.547Z,1.90
2019-02-23T08:53:27.584Z,1.40
2019-02-23T08:55:59.467Z,1.00
2019-02-23T08:58:29.349Z,0.70
2019-02-23T09:01:09.845Z,0.50
2019-02-23T09:03:32.665Z,0.20
2019-02-23T09:06:04.631Z,0.10
2019-02-23T09:08:36.102Z,0.00
2019-02-23T09:11:11.517Z,-0.20
2019-02-23T09:13:41.558Z,-0.40
2019-02-23T09:16:11.751Z,-0.60
2019-02-23T09:18:42.675Z,-0.50
2019-02-23T09:21:13.049Z,-0.30
2019-02-23T09:23:44.271Z,0.00
2019-02-23T09:26:13.200Z,0.20
2019-02-23T09:28:43.517Z,0.60
2019-02-23T09:31:16.621Z,1.10
2019-02-23T09:33:48.227Z,1.90
2019-02-23T09:36:17.999Z,2.70
2019-02-23T09:38:49.842Z,3.20
2019-02-23T09:41:18.874Z,3.70
2019-02-23T09:43:47.640Z,3.90
2019-02-23T09:46:16.739Z,4.80
2019-02-23T09:48:45.636Z,5.30
2019-02-23T09:51:25.182Z,5.30
2019-02-23T09:53:57.248Z,4.40
2019-02-23T09:56:27.650Z,4.00
2019-02-23T09:58:58.821Z,3.80
2019-02-23T10:01:30.947Z,3.50
2019-02-23T10:04:00.688Z,3.30
2019-02-23T10:06:31.091Z,3.00
2019-02-23T10:08:59.716Z,3.20
2019-02-23T10:11:32.700Z,3.00
2019-02-23T10:14:07.592Z,2.80
2019-02-23T10:16:36.690Z,2.60
2019-02-23T10:19:08.454Z,2.40
2019-02-23T10:21:40.352Z,2.50
2019-02-23T10:24:15.601Z,2.60
2019-02-23T10:26:44.374Z,2.60
2019-02-23T10:29:14.284Z,2.60
2019-02-23T10:31:43.081Z,2.50
2019-02-23T10:34:13.462Z,2.30
2019-02-23T10:36:42.471Z,2.00
2019-02-23T10:39:13.205Z,2.10
2019-02-23T10:41:41.869Z,2.20
2019-02-23T10:44:12.075Z,2.40
2019-02-23T10:46:41.044Z,2.50
2019-02-23T10:49:09.724Z,3.20
2019-02-23T10:51:39.212Z,3.20
2019-02-23T10:54:07.961Z,3.40
2019-02-23T10:56:37.100Z,3.40
2019-02-23T10:59:07.155Z,3.50
2019-02-23T11:01:35.908Z,3.30
2019-02-23T11:04:05.283Z,3.40
2019-02-23T11:06:34.124Z,3.20
2019-02-23T11:09:02.909Z,3.00
2019-02-23T11:11:31.682Z,3.20
2019-02-23T11:14:03.162Z,3.30
2019-02-23T11:16:34.282Z,3.30
2019-02-23T11:19:03.009Z,3.30
2019-02-23T11:21:34.262Z,3.20
2019-02-23T11:24:03.797Z,3.20
2019-02-23T11:26:35.810Z,3.00
2019-02-23T11:29:05.984Z,2.80
2019-02-23T11:31:38.029Z,2.70
2019-02-23T11:34:08.189Z,2.80
2019-02-23T11:36:37.414Z,2.70
2019-02-23T11:39:06.838Z,2.90
2019-02-23T11:41:37.054Z,2.90
2019-02-23T11:44:07.404Z,3.20
2019-02-23T11:46:36.591Z,3.20
2019-02-23T11:49:15.907Z,3.00
2019-02-23T11:51:47.945Z,2.90
2019-02-23T11:54:16.686Z,2.40
2019-02-23T11:56:45.411Z,2.50
2019-02-23T11:59:14.063Z,3.00
2019-02-23T12:01:42.791Z,3.20
2019-02-23T12:04:12.408Z,3.50
2019-02-23T12:06:42.490Z,3.50
2019-02-23T12:09:12.694Z,3.30
2019-02-23T12:11:41.481Z,2.90
2019-02-23T12:14:12.990Z,2.70
2019-02-23T12:16:43.267Z,2.80
2019-02-23T12:19:11.971Z,3.00
2019-02-23T12:21:40.682Z,3.40
2019-02-23T12:24:09.572Z,3.60
2019-02-23T12:26:40.409Z,3.60
2019-02-23T12:29:11.004Z,3.30
2019-02-23T12:31:39.822Z,3.10
2019-02-23T12:34:14.035Z,3.10
2019-02-23T12:36:43.083Z,3.20
2019-02-23T12:39:12.947Z,3.30
2019-02-23T12:41:41.695Z,3.00
2019-02-23T12:44:13.276Z,2.80
2019-02-23T12:46:42.059Z,2.70
2019-02-23T12:49:11.096Z,2.80
2019-02-23T12:51:40.640Z,2.90
2019-02-23T12:54:16.489Z,2.90
2019-02-23T12:56:41.105Z,3.00
2019-02-23T12:59:10.586Z,2.80
2019-02-23T13:01:46.267Z,2.80
2019-02-23T13:04:15.159Z,2.80
2019-02-23T13:06:44.507Z,2.70
2019-02-23T13:09:25.035Z,2.40
2019-02-23T13:11:56.740Z,2.30
2019-02-23T13:14:28.590Z,2.20
2019-02-23T13:17:03.442Z,2.00
2019-02-23T13:19:40.358Z,2.10
2019-02-23T13:22:24.297Z,2.00
2019-02-23T13:25:08.216Z,2.00
2019-02-23T13:28:04.396Z,2.00
2019-02-23T13:31:08.080Z,1.80
2019-02-23T13:33:52.948Z,1.40
2019-02-23T13:36:33.582Z,1.40
2019-02-23T13:39:05.201Z,1.40
2019-02-23T13:41:58.193Z,1.40
2019-02-23T13:44:37.509Z,1.30
2019-02-23T13:47:15.378Z,1.20
2019-02-23T13:50:02.204Z,1.10
2019-02-23T13:53:03.025Z,1.10
2019-02-23T13:56:06.857Z,1.30
2019-02-23T13:58:54.305Z,1.40
2019-02-23T14:01:32.157Z,1.40
2019-02-23T14:04:07.057Z,1.50
2019-02-23T14:06:48.289Z,1.50
2019-02-23T14:09:38.859Z,1.40
2019-02-23T14:12:29.733Z,1.40
2019-02-23T14:15:13.631Z,1.10
2019-02-23T14:17:57.470Z,1.10
2019-02-23T14:21:02.684Z,1.00
2019-02-23T14:23:51.093Z,1.10
2019-02-23T14:26:41.402Z,1.10
2019-02-23T14:29:26.107Z,1.20
2019-02-23T14:32:15.765Z,1.20
2019-02-23T14:34:59.730Z,1.20
2019-02-23T14:37:37.520Z,1.20
2019-02-23T14:40:12.160Z,1.20
2019-02-23T14:43:08.010Z,1.10
2019-02-23T14:45:56.470Z,1.00
2019-02-23T14:49:04.640Z,1.00
2019-02-23T14:51:54.108Z,1.00
2019-02-23T14:54:45.329Z,1.00
2019-02-23T14:57:32.662Z,1.00
2019-02-23T15:00:19.588Z,0.90
2019-02-23T15:03:21.046Z,0.90
2019-02-23T15:05:56.181Z,0.80
2019-02-23T15:08:36.351Z,0.80
2019-02-23T15:11:14.094Z,0.80
2019-02-23T15:13:59.458Z,0.80
2019-02-23T15:17:06.297Z,0.80
2019-02-23T15:19:54.421Z,0.70
2019-02-23T15:23:01.261Z,0.70
2019-02-23T15:25:38.941Z,0.70
2019-02-23T15:28:37.732Z,0.70
2019-02-23T15:31:11.005Z,0.70
2019-02-23T15:33:50.364Z,0.70
2019-02-23T15:36:23.102Z,0.60
2019-02-23T15:39:12.911Z,0.60
2019-02-23T15:41:51.143Z,0.50
2019-02-23T15:44:37.609Z,0.40
2019-02-23T15:47:27.257Z,0.40
2019-02-23T15:49:56.030Z,0.30
2019-02-23T15:52:26.625Z,0.30
2019-02-23T15:54:56.859Z,0.30
2019-02-23T15:57:27.030Z,0.40
2019-02-23T15:59:59.495Z,0.30
2019-02-23T16:02:28.133Z,0.30
2019-02-23T16:07:47.077Z,0.30
2019-02-23T16:10:17.746Z,0.40
2019-02-23T16:12:47.528Z,0.40
2019-02-23T16:15:17.455Z,0.30
2019-02-23T16:17:46.270Z,0.30
2019-02-23T16:20:17.453Z,0.40
2019-02-23T16:22:47.277Z,0.30
2019-02-23T16:25:16.341Z,0.20
2019-02-23T16:27:47.575Z,0.10
2019-02-23T16:30:16.272Z,0.10
2019-02-23T16:32:47.511Z,0.10
2019-02-23T16:35:17.651Z,0.00
2019-02-23T16:37:54.075Z,0.00
2019-02-23T16:40:23.794Z,0.00
2019-02-23T16:42:53.260Z,0.00
2019-02-23T16:45:22.056Z,0.10
2019-02-23T16:47:50.747Z,0.20
2019-02-23T16:50:21.067Z,0.20
2019-02-23T16:52:51.290Z,0.10
2019-02-23T16:55:21.068Z,0.10
2019-02-23T16:57:49.761Z,0.10
2019-02-23T17:00:19.933Z,0.10
2019-02-23T17:02:48.933Z,0.00
2019-02-23T17:05:17.784Z,-0.10
2019-02-23T17:07:46.860Z,-0.20
2019-02-23T17:10:15.621Z,-0.10
2019-02-23T17:12:48.589Z,-0.10
2019-02-23T17:15:18.264Z,-0.10
2019-02-23T17:17:55.482Z,-0.20
2019-02-23T17:20:26.615Z,-0.20
2019-02-23T17:22:58.423Z,-0.20
2019-02-23T17:25:27.113Z,-0.30
2019-02-23T17:28:00.610Z,-0.20
2019-02-23T17:30:29.431Z,-0.20
2019-02-23T17:32:58.344Z,-0.30
2019-02-23T17:35:27.913Z,-0.40
2019-02-23T17:37:57.243Z,-0.40
2019-02-23T17:40:27.383Z,-0.40
2019-02-23T17:42:56.630Z,-0.40
2019-02-23T17:45:31.052Z,-0.50
2019-02-23T17:47:59.616Z,-0.50
2019-02-23T17:50:29.482Z,-0.60
2019-02-23T17:53:02.272Z,-0.60
2019-02-23T17:55:31.134Z,-0.70
2019-02-23T17:58:01.207Z,-0.70
2019-02-23T18:00:31.999Z,-0.80
2019-02-23T18:03:06.008Z,-0.80
2019-02-23T18:05:37.939Z,-0.80
2019-02-23T18:08:06.865Z,-0.80
2019-02-23T18:10:35.617Z,-0.80
2019-02-23T18:13:04.430Z,-0.90
2019-02-23T18:15:35.020Z,-0.90
2019-02-23T18:18:04.238Z,-0.90
2019-02-23T18:20:34.886Z,-0.90
2019-02-23T18:23:12.713Z,-0.90
2019-02-23T18:25:45.151Z,-1.00
2019-02-23T18:28:18.989Z,-1.00
2019-02-23T18:30:50.165Z,-1.00
2019-02-23T18:33:21.284Z,-0.90
2019-02-23T18:35:50.169Z,-0.90
2019-02-23T18:38:25.156Z,-0.90
2019-02-23T18:40:52.299Z,-0.90
2019-02-23T18:43:24.670Z,-0.80
2019-02-23T18:45:57.109Z,-0.80
2019-02-23T18:48:35.576Z,-0.80
2019-02-23T18:51:11.003Z,-0.80
2019-02-23T18:53:48.521Z,-0.90
2019-02-23T18:56:20.043Z,-0.90
2019-02-23T18:58:48.761Z,-0.80
2019-02-23T19:01:19.278Z,-0.70
2019-02-23T19:03:48.051Z,-0.70
2019-02-23T19:06:22.564Z,-0.80
2019-02-23T19:08:51.372Z,-0.80
2019-02-23T19:11:21.488Z,-0.80
2019-02-23T19:13:52.275Z,-0.70
2019-02-23T19:16:24.500Z,-0.60
2019-02-23T19:18:53.310Z,-0.70
2019-02-23T19:21:22.609Z,-0.70
2019-02-23T19:23:58.887Z,-0.60
2019-02-23T19:26:28.799Z,-0.50
2019-02-23T19:28:58.183Z,-0.50
2019-02-23T19:31:30.256Z,-0.50
2019-02-23T19:34:10.118Z,-0.50
2019-02-23T19:36:44.416Z,-0.60
2019-02-23T19:39:19.556Z,-0.50
2019-02-23T19:41:50.564Z,-0.50
2019-02-23T19:44:19.355Z,-0.50
2019-02-23T19:46:53.265Z,-0.50
2019-02-23T19:49:23.562Z,-0.50
2019-02-23T19:51:54.440Z,-0.50
2019-02-23T19:54:23.970Z,-0.50
2019-02-23T19:56:54.182Z,-0.50
2019-02-23T19:59:25.231Z,-0.60
2019-02-23T20:01:54.023Z,-0.50
2019-02-23T20:04:25.340Z,-0.40
2019-02-23T20:07:01.253Z,-0.40
2019-02-23T20:09:31.745Z,-0.40
2019-02-23T20:12:01.839Z,-0.40
2019-02-23T20:14:31.616Z,-0.40
2019-02-23T20:17:00.502Z,-0.40
2019-02-23T20:19:29.279Z,-0.30
2019-02-23T20:21:58.430Z,-0.30
2019-02-23T20:24:28.663Z,-0.40
2019-02-23T20:26:57.580Z,-0.40
2019-02-23T20:29:27.874Z,-0.40
2019-02-23T20:31:58.843Z,-0.40
2019-02-23T20:34:28.505Z,-0.40
2019-02-23T20:37:04.011Z,-0.40
2019-02-23T20:39:36.277Z,-0.40
2019-02-23T20:42:05.043Z,-0.40
2019-02-23T20:44:37.125Z,-0.40
2019-02-23T20:47:06.937Z,-0.30
2019-02-23T20:49:40.734Z,-0.40
2019-02-23T20:52:10.774Z,-0.40
2019-02-23T20:54:41.096Z,-0.40
2019-02-23T20:57:13.978Z,-0.30
2019-02-23T20:59:44.557Z,-0.30
2019-02-23T21:02:17.370Z,-0.30
2019-02-23T21:04:48.196Z,-0.30
2019-02-23T21:07:17.243Z,-0.30
2019-02-23T21:09:47.518Z,-0.30
2019-02-23T21:12:18.380Z,-0.20
2019-02-23T21:14:49.260Z,-0.20
2019-02-23T21:17:19.686Z,-0.30
2019-02-23T21:19:51.364Z,-0.30
2019-02-23T21:22:23.513Z,-0.20
2019-02-23T21:24:56.069Z,-0.10
2019-02-23T21:27:25.973Z,-0.20
2019-02-23T21:29:56.900Z,-0.30
2019-02-23T21:32:26.389Z,-0.20
2019-02-23T21:34:58.492Z,-0.30
2019-02-23T21:37:42.381Z,-0.30
2019-02-23T21:40:12.657Z,-0.30
2019-02-23T21:42:47.318Z,-0.30
2019-02-23T21:45:24.078Z,-0.40
2019-02-23T21:47:55.195Z,-0.30
2019-02-23T21:50:24.790Z,-0.30
2019-02-23T21:52:55.884Z,-0.30
2019-02-23T21:55:26.245Z,-0.30
2019-02-23T21:58:01.562Z,-0.40
2019-02-23T22:00:31.296Z,-0.30
2019-02-23T22:03:00.036Z,-0.20
2019-02-23T22:05:35.446Z,-0.20
2019-02-23T22:08:04.647Z,-0.20
2019-02-23T22:10:34.853Z,-0.10
2019-02-23T22:13:08.869Z,-0.10
2019-02-23T22:15:42.372Z,-0.10
2019-02-23T22:18:13.279Z,-0.10
2019-02-23T22:20:43.438Z,-0.10
2019-02-23T22:23:13.619Z,-0.10
2019-02-23T22:25:44.001Z,-0.20
2019-02-23T22:28:14.793Z,-0.10
2019-02-23T22:30:44.132Z,0.00
2019-02-23T22:33:20.166Z,-0.10
2019-02-23T22:35:48.996Z,-0.10
2019-02-23T22:38:20.991Z,0.00
2019-02-23T22:40:52.134Z,-0.10
2019-02-23T22:43:22.386Z,-0.10
2019-02-23T22:45:51.100Z,-0.10
2019-02-23T22:48:24.203Z,-0.10
2019-02-23T22:51:04.819Z,0.00
2019-02-23T22:53:36.863Z,0.00
2019-02-23T22:56:07.122Z,0.00
2019-02-23T22:58:37.141Z,0.00
2019-02-23T23:01:07.327Z,0.00
2019-02-23T23:03:39.974Z,0.00
2019-02-23T23:06:23.295Z,0.00
2019-02-23T23:08:53.275Z,0.00
2019-02-23T23:11:26.829Z,0.00
2019-02-23T23:13:59.755Z,0.00
2019-02-23T23:16:30.004Z,0.00
2019-02-23T23:19:01.497Z,0.00
2019-02-23T23:21:30.292Z,0.00
2019-02-23T23:24:02.574Z,0.00
2019-02-23T23:26:32.045Z,0.00
2019-02-23T23:29:00.937Z,0.00
2019-02-23T23:31:38.784Z,0.00
2019-02-23T23:34:03.313Z,0.10
2019-02-23T23:36:33.073Z,0.10
2019-02-23T23:39:05.359Z,0.10
2019-02-23T23:41:38.307Z,0.00
2019-02-23T23:44:06.984Z,0.00
2019-02-23T23:49:23.870Z,0.10
2019-02-23T23:51:55.431Z,0.10
2019-02-23T23:54:26.032Z,0.00
2019-02-23T23:56:57.435Z,0.00
2019-02-23T23:59:27.884Z,0.00
